Bert Mooney Airport


Codes: KBTM/BTM
Name: Bert Mooney Airport
City: Butte
Country: United States
Elevation: 5550 ft.
Wikipedia:

Photos at Bert Mooney Airport


   Photos courtesy of SpottingLog. You can add your own sightings and photos by signing up for a free trial today.



No photos found.

Weather at Bert Mooney Airport


Time (UTC)DescriptionTempratureWindCloud coverageVisibilityPressureHumidity
25-Jun-2024 12:00Clear Sky10°C2 mph, SW0%10000m1014hPa57%
25-Jun-2024 15:00Clear Sky13°C4 mph, NW0%10000m1014hPa51%
25-Jun-2024 18:00Clear Sky19°C9 mph, NW0%10000m1013hPa37%
25-Jun-2024 21:00Clear Sky26°C11 mph, NW1%10000m1011hPa22%
26-Jun-2024 00:00Clear Sky26°C11 mph, N5%10000m1011hPa24%
26-Jun-2024 03:00Clear Sky18°C7 mph, E4%10000m1014hPa46%
26-Jun-2024 06:00Few Clouds12°C2 mph, NE18%10000m1017hPa66%
26-Jun-2024 09:00Few Clouds11°C4 mph, E14%10000m1017hPa73%
26-Jun-2024 12:00Few Clouds10°C4 mph, SE18%10000m1017hPa79%
26-Jun-2024 15:00Few Clouds17°C7 mph, SE11%10000m1014hPa54%
26-Jun-2024 18:00Few Clouds25°C11 mph, SE23%10000m1009hPa33%
26-Jun-2024 21:00Overcast Clouds26°C18 mph, SW97%10000m1007hPa32%
27-Jun-2024 00:00Light Rain24°C9 mph, SW80%10000m1006hPa41%
27-Jun-2024 03:00Light Rain18°C4 mph, N86%10000m1006hPa60%
27-Jun-2024 06:00Light Rain14°C4 mph, NW60%10000m1008hPa78%
27-Jun-2024 09:00Light Rain12°C4 mph, NW72%10000m1007hPa86%
27-Jun-2024 12:00Light Rain11°C2 mph, SW80%10000m1006hPa89%
27-Jun-2024 15:00Light Rain18°C11 mph, W86%10000m1003hPa54%
27-Jun-2024 18:00Light Rain18°C18 mph, W76%10000m1003hPa38%
27-Jun-2024 21:00Overcast Clouds20°C20 mph, W100%10000m1002hPa25%
28-Jun-2024 00:00Broken Clouds17°C22 mph, NW80%10000m1004hPa30%
28-Jun-2024 03:00Clear Sky11°C13 mph, NW4%10000m1009hPa50%
28-Jun-2024 06:00Clear Sky7°C4 mph, W5%10000m1012hPa68%
28-Jun-2024 09:00Broken Clouds6°C4 mph, SW67%10000m1013hPa70%
28-Jun-2024 12:00Broken Clouds5°C4 mph, W67%10000m1014hPa76%
28-Jun-2024 15:00Scattered Clouds11°C7 mph, NW25%10000m1015hPa56%
28-Jun-2024 18:00Scattered Clouds13°C7 mph, N50%10000m1015hPa55%
28-Jun-2024 21:00Light Rain15°C7 mph, NE98%10000m1015hPa48%
29-Jun-2024 00:00Overcast Clouds13°C4 mph, E98%10000m1016hPa58%
29-Jun-2024 03:00Few Clouds11°C4 mph, SE13%10000m1015hPa66%
29-Jun-2024 06:00Scattered Clouds8°C4 mph, E44%10000m1017hPa77%
29-Jun-2024 09:00Overcast Clouds7°C4 mph, E85%10000m1017hPa79%
29-Jun-2024 12:00Overcast Clouds8°C4 mph, SE93%10000m1017hPa78%
29-Jun-2024 15:00Overcast Clouds12°C4 mph, SE100%10000m1016hPa62%
29-Jun-2024 18:00Overcast Clouds18°C4 mph, SE98%10000m1013hPa43%
29-Jun-2024 21:00Overcast Clouds23°C7 mph, SE95%10000m1009hPa29%
30-Jun-2024 00:00Overcast Clouds22°C9 mph, SE97%10000m1008hPa33%
30-Jun-2024 03:00Overcast Clouds17°C4 mph, E100%10000m1010hPa54%
30-Jun-2024 06:00Overcast Clouds15°C2 mph, N100%10000m1010hPa59%
30-Jun-2024 09:00Light Rain15°C9 mph, NW100%10000m1011hPa65%